sensor_id;sensor_type;location;lat;lon;timestamp;P1;durP1;ratioP1;P2;durP2;ratioP2
13034;SDS011;6584;48.022;11.810;2022-12-16T00:00:23;25.02;;;15.20;;
13034;SDS011;6584;48.022;11.810;2022-12-16T00:02:49;32.58;;;17.60;;
13034;SDS011;6584;48.022;11.810;2022-12-16T00:05:15;26.38;;;16.23;;
13034;SDS011;6584;48.022;11.810;2022-12-16T00:07:41;29.85;;;17.63;;
13034;SDS011;6584;48.022;11.810;2022-12-16T00:10:07;25.77;;;17.13;;
13034;SDS011;6584;48.022;11.810;2022-12-16T00:12:33;28.15;;;17.73;;
13034;SDS011;6584;48.022;11.810;2022-12-16T00:14:58;24.55;;;15.55;;
13034;SDS011;6584;48.022;11.810;2022-12-16T00:17:24;24.15;;;14.95;;
13034;SDS011;6584;48.022;11.810;2022-12-16T00:19:49;33.10;;;19.20;;
13034;SDS011;6584;48.022;11.810;2022-12-16T00:22:15;30.25;;;17.88;;
13034;SDS011;6584;48.022;11.810;2022-12-16T00:24:41;25.55;;;17.38;;
13034;SDS011;6584;48.022;11.810;2022-12-16T00:27:06;27.10;;;17.83;;
13034;SDS011;6584;48.022;11.810;2022-12-16T00:29:32;32.03;;;18.88;;
13034;SDS011;6584;48.022;11.810;2022-12-16T00:31:58;29.20;;;17.63;;
13034;SDS011;6584;48.022;11.810;2022-12-16T00:34:24;29.08;;;18.33;;
13034;SDS011;6584;48.022;11.810;2022-12-16T00:36:49;26.13;;;17.05;;
13034;SDS011;6584;48.022;11.810;2022-12-16T00:39:15;31.35;;;17.80;;
13034;SDS011;6584;48.022;11.810;2022-12-16T00:41:41;27.52;;;17.63;;
13034;SDS011;6584;48.022;11.810;2022-12-16T00:44:07;30.13;;;18.75;;
13034;SDS011;6584;48.022;11.810;2022-12-16T00:46:33;31.83;;;18.95;;
13034;SDS011;6584;48.022;11.810;2022-12-16T00:48:58;29.60;;;18.08;;
13034;SDS011;6584;48.022;11.810;2022-12-16T00:51:24;30.90;;;18.17;;
13034;SDS011;6584;48.022;11.810;2022-12-16T00:53:49;32.20;;;17.98;;
13034;SDS011;6584;48.022;11.810;2022-12-16T00:56:15;24.92;;;16.20;;
13034;SDS011;6584;48.022;11.810;2022-12-16T00:58:44;30.92;;;18.80;;
13034;SDS011;6584;48.022;11.810;2022-12-16T01:01:09;31.30;;;18.92;;
13034;SDS011;6584;48.022;11.810;2022-12-16T01:03:35;29.75;;;17.92;;
13034;SDS011;6584;48.022;11.810;2022-12-16T01:06:01;29.92;;;18.65;;
13034;SDS011;6584;48.022;11.810;2022-12-16T01:08:39;31.40;;;18.02;;
13034;SDS011;6584;48.022;11.810;2022-12-16T01:11:04;32.22;;;18.83;;
13034;SDS011;6584;48.022;11.810;2022-12-16T01:13:30;28.73;;;17.40;;
13034;SDS011;6584;48.022;11.810;2022-12-16T01:16:00;28.40;;;17.08;;
13034;SDS011;6584;48.022;11.810;2022-12-16T01:18:26;29.33;;;16.85;;
13034;SDS011;6584;48.022;11.810;2022-12-16T01:20:52;26.80;;;16.45;;
13034;SDS011;6584;48.022;11.810;2022-12-16T01:23:17;28.00;;;17.17;;
13034;SDS011;6584;48.022;11.810;2022-12-16T01:25:43;26.40;;;15.68;;
13034;SDS011;6584;48.022;11.810;2022-12-16T01:28:08;26.60;;;15.65;;
13034;SDS011;6584;48.022;11.810;2022-12-16T01:30:34;27.33;;;16.48;;
13034;SDS011;6584;48.022;11.810;2022-12-16T01:33:00;23.42;;;14.57;;
13034;SDS011;6584;48.022;11.810;2022-12-16T01:35:25;25.13;;;16.13;;
13034;SDS011;6584;48.022;11.810;2022-12-16T01:37:51;23.40;;;15.00;;
13034;SDS011;6584;48.022;11.810;2022-12-16T01:40:20;23.38;;;14.80;;
13034;SDS011;6584;48.022;11.810;2022-12-16T01:42:48;21.58;;;14.07;;
13034;SDS011;6584;48.022;11.810;2022-12-16T01:45:21;22.00;;;13.70;;
13034;SDS011;6584;48.022;11.810;2022-12-16T01:47:51;21.73;;;13.70;;
13034;SDS011;6584;48.022;11.810;2022-12-16T01:50:21;20.08;;;13.10;;
13034;SDS011;6584;48.022;11.810;2022-12-16T01:52:48;22.13;;;13.90;;
13034;SDS011;6584;48.022;11.810;2022-12-16T01:55:20;19.27;;;12.52;;
13034;SDS011;6584;48.022;11.810;2022-12-16T01:57:50;19.42;;;13.07;;
13034;SDS011;6584;48.022;11.810;2022-12-16T02:00:19;19.98;;;12.55;;
13034;SDS011;6584;48.022;11.810;2022-12-16T02:02:45;19.13;;;12.32;;
13034;SDS011;6584;48.022;11.810;2022-12-16T02:05:11;18.20;;;12.02;;
13034;SDS011;6584;48.022;11.810;2022-12-16T02:10:34;18.17;;;11.50;;
13034;SDS011;6584;48.022;11.810;2022-12-16T02:13:41;17.15;;;11.93;;
13034;SDS011;6584;48.022;11.810;2022-12-16T02:16:14;17.45;;;11.73;;
13034;SDS011;6584;48.022;11.810;2022-12-16T02:27:08;18.70;;;11.23;;
13034;SDS011;6584;48.022;11.810;2022-12-16T02:30:17;17.20;;;11.38;;
13034;SDS011;6584;48.022;11.810;2022-12-16T02:33:21;18.65;;;11.95;;
13034;SDS011;6584;48.022;11.810;2022-12-16T02:36:16;16.20;;;11.13;;
13034;SDS011;6584;48.022;11.810;2022-12-16T02:38:55;16.52;;;11.40;;
13034;SDS011;6584;48.022;11.810;2022-12-16T02:41:42;15.70;;;10.68;;
13034;SDS011;6584;48.022;11.810;2022-12-16T02:44:10;15.23;;;10.95;;
13034;SDS011;6584;48.022;11.810;2022-12-16T02:46:38;14.80;;;10.82;;
13034;SDS011;6584;48.022;11.810;2022-12-16T02:49:52;16.65;;;11.70;;
13034;SDS011;6584;48.022;11.810;2022-12-16T02:51:51;16.48;;;11.85;;
13034;SDS011;6584;48.022;11.810;2022-12-16T02:54:18;19.42;;;12.40;;
13034;SDS011;6584;48.022;11.810;2022-12-16T02:56:54;16.80;;;11.20;;
13034;SDS011;6584;48.022;11.810;2022-12-16T03:00:27;17.80;;;11.80;;
13034;SDS011;6584;48.022;11.810;2022-12-16T03:05:39;16.25;;;10.43;;
13034;SDS011;6584;48.022;11.810;2022-12-16T03:08:12;18.05;;;11.88;;
13034;SDS011;6584;48.022;11.810;2022-12-16T03:10:44;19.30;;;12.02;;
13034;SDS011;6584;48.022;11.810;2022-12-16T03:13:17;19.45;;;12.63;;
13034;SDS011;6584;48.022;11.810;2022-12-16T03:15:44;17.88;;;12.15;;
13034;SDS011;6584;48.022;11.810;2022-12-16T03:18:12;16.80;;;11.20;;
13034;SDS011;6584;48.022;11.810;2022-12-16T03:20:53;18.73;;;12.30;;
13034;SDS011;6584;48.022;11.810;2022-12-16T03:26:11;20.45;;;12.40;;
13034;SDS011;6584;48.022;11.810;2022-12-16T03:31:42;19.80;;;12.40;;
13034;SDS011;6584;48.022;11.810;2022-12-16T03:37:02;17.77;;;11.65;;
13034;SDS011;6584;48.022;11.810;2022-12-16T03:39:30;18.20;;;12.40;;
13034;SDS011;6584;48.022;11.810;2022-12-16T03:41:58;16.90;;;11.93;;
13034;SDS011;6584;48.022;11.810;2022-12-16T03:44:26;17.60;;;11.95;;
13034;SDS011;6584;48.022;11.810;2022-12-16T03:46:52;19.75;;;12.68;;
13034;SDS011;6584;48.022;11.810;2022-12-16T03:49:18;17.02;;;11.90;;
13034;SDS011;6584;48.022;11.810;2022-12-16T03:51:45;20.15;;;13.32;;
13034;SDS011;6584;48.022;11.810;2022-12-16T03:54:10;16.45;;;11.80;;
13034;SDS011;6584;48.022;11.810;2022-12-16T03:56:36;18.15;;;12.25;;
13034;SDS011;6584;48.022;11.810;2022-12-16T03:59:01;16.65;;;12.25;;
13034;SDS011;6584;48.022;11.810;2022-12-16T04:01:27;16.95;;;12.60;;
13034;SDS011;6584;48.022;11.810;2022-12-16T04:03:52;17.05;;;12.38;;
13034;SDS011;6584;48.022;11.810;2022-12-16T04:06:18;18.13;;;13.40;;
13034;SDS011;6584;48.022;11.810;2022-12-16T04:08:44;16.75;;;12.68;;
13034;SDS011;6584;48.022;11.810;2022-12-16T04:11:13;18.00;;;13.35;;
13034;SDS011;6584;48.022;11.810;2022-12-16T04:13:57;17.23;;;13.15;;
13034;SDS011;6584;48.022;11.810;2022-12-16T04:16:42;16.85;;;12.73;;
13034;SDS011;6584;48.022;11.810;2022-12-16T04:19:31;18.90;;;13.25;;
13034;SDS011;6584;48.022;11.810;2022-12-16T04:22:21;24.08;;;14.75;;
13034;SDS011;6584;48.022;11.810;2022-12-16T04:25:09;18.60;;;13.80;;
13034;SDS011;6584;48.022;11.810;2022-12-16T04:27:40;20.38;;;14.80;;
13034;SDS011;6584;48.022;11.810;2022-12-16T04:30:11;20.77;;;14.77;;
13034;SDS011;6584;48.022;11.810;2022-12-16T04:32:48;21.67;;;15.25;;
13034;SDS011;6584;48.022;11.810;2022-12-16T04:35:36;21.17;;;16.13;;
13034;SDS011;6584;48.022;11.810;2022-12-16T04:38:20;21.60;;;16.13;;
13034;SDS011;6584;48.022;11.810;2022-12-16T04:41:05;23.42;;;16.77;;
13034;SDS011;6584;48.022;11.810;2022-12-16T04:43:49;21.95;;;16.20;;
13034;SDS011;6584;48.022;11.810;2022-12-16T04:46:50;24.25;;;17.40;;
13034;SDS011;6584;48.022;11.810;2022-12-16T04:49:34;25.23;;;18.77;;
13034;SDS011;6584;48.022;11.810;2022-12-16T04:52:18;28.08;;;19.38;;
13034;SDS011;6584;48.022;11.810;2022-12-16T04:55:03;26.90;;;19.23;;
13034;SDS011;6584;48.022;11.810;2022-12-16T04:57:50;27.83;;;20.02;;
13034;SDS011;6584;48.022;11.810;2022-12-16T05:00:38;29.30;;;20.48;;
13034;SDS011;6584;48.022;11.810;2022-12-16T05:03:23;29.27;;;20.70;;
13034;SDS011;6584;48.022;11.810;2022-12-16T05:06:08;29.35;;;19.70;;
13034;SDS011;6584;48.022;11.810;2022-12-16T05:08:52;31.08;;;22.17;;
13034;SDS011;6584;48.022;11.810;2022-12-16T05:11:37;29.77;;;20.73;;
13034;SDS011;6584;48.022;11.810;2022-12-16T05:14:21;34.10;;;22.38;;
13034;SDS011;6584;48.022;11.810;2022-12-16T05:17:04;35.05;;;24.15;;
13034;SDS011;6584;48.022;11.810;2022-12-16T05:19:49;32.40;;;22.73;;
13034;SDS011;6584;48.022;11.810;2022-12-16T05:22:46;43.08;;;31.23;;
13034;SDS011;6584;48.022;11.810;2022-12-16T05:25:30;33.15;;;24.45;;
13034;SDS011;6584;48.022;11.810;2022-12-16T05:28:14;32.17;;;22.15;;
13034;SDS011;6584;48.022;11.810;2022-12-16T05:30:58;31.08;;;20.98;;
13034;SDS011;6584;48.022;11.810;2022-12-16T05:33:42;32.17;;;21.90;;
13034;SDS011;6584;48.022;11.810;2022-12-16T05:36:26;30.02;;;21.25;;
13034;SDS011;6584;48.022;11.810;2022-12-16T05:39:10;32.53;;;21.02;;
13034;SDS011;6584;48.022;11.810;2022-12-16T05:41:54;31.67;;;21.02;;
13034;SDS011;6584;48.022;11.810;2022-12-16T05:44:39;29.17;;;20.77;;
13034;SDS011;6584;48.022;11.810;2022-12-16T05:47:23;28.70;;;20.15;;
13034;SDS011;6584;48.022;11.810;2022-12-16T05:50:07;29.25;;;20.80;;
13034;SDS011;6584;48.022;11.810;2022-12-16T05:52:52;28.63;;;20.45;;
13034;SDS011;6584;48.022;11.810;2022-12-16T05:55:38;28.75;;;20.50;;
13034;SDS011;6584;48.022;11.810;2022-12-16T05:58:23;27.48;;;19.90;;
13034;SDS011;6584;48.022;11.810;2022-12-16T06:01:07;26.17;;;19.20;;
13034;SDS011;6584;48.022;11.810;2022-12-16T06:03:52;28.70;;;19.85;;
13034;SDS011;6584;48.022;11.810;2022-12-16T06:06:36;28.35;;;19.52;;
13034;SDS011;6584;48.022;11.810;2022-12-16T06:09:20;26.55;;;18.80;;
13034;SDS011;6584;48.022;11.810;2022-12-16T06:12:04;26.80;;;18.95;;
13034;SDS011;6584;48.022;11.810;2022-12-16T06:14:49;28.05;;;20.05;;
13034;SDS011;6584;48.022;11.810;2022-12-16T06:17:33;25.73;;;19.08;;
13034;SDS011;6584;48.022;11.810;2022-12-16T06:20:17;27.10;;;18.20;;
13034;SDS011;6584;48.022;11.810;2022-12-16T06:23:01;25.48;;;18.52;;
13034;SDS011;6584;48.022;11.810;2022-12-16T06:25:45;26.35;;;19.65;;
13034;SDS011;6584;48.022;11.810;2022-12-16T06:28:29;26.65;;;19.40;;
13034;SDS011;6584;48.022;11.810;2022-12-16T06:31:13;28.13;;;20.35;;
13034;SDS011;6584;48.022;11.810;2022-12-16T06:33:57;29.98;;;19.42;;
13034;SDS011;6584;48.022;11.810;2022-12-16T06:36:41;31.85;;;20.65;;
13034;SDS011;6584;48.022;11.810;2022-12-16T06:39:25;26.20;;;18.95;;
13034;SDS011;6584;48.022;11.810;2022-12-16T06:42:09;29.00;;;19.83;;
13034;SDS011;6584;48.022;11.810;2022-12-16T06:44:53;30.02;;;20.13;;
13034;SDS011;6584;48.022;11.810;2022-12-16T06:47:38;28.00;;;20.42;;
13034;SDS011;6584;48.022;11.810;2022-12-16T06:50:22;28.90;;;20.30;;
13034;SDS011;6584;48.022;11.810;2022-12-16T06:53:06;26.85;;;19.60;;
13034;SDS011;6584;48.022;11.810;2022-12-16T06:55:50;25.50;;;18.92;;
13034;SDS011;6584;48.022;11.810;2022-12-16T06:58:35;27.73;;;19.85;;
13034;SDS011;6584;48.022;11.810;2022-12-16T07:01:18;26.85;;;18.95;;
13034;SDS011;6584;48.022;11.810;2022-12-16T07:04:03;30.80;;;19.50;;
13034;SDS011;6584;48.022;11.810;2022-12-16T07:06:47;27.13;;;19.25;;
13034;SDS011;6584;48.022;11.810;2022-12-16T07:09:31;28.60;;;19.70;;
13034;SDS011;6584;48.022;11.810;2022-12-16T07:12:15;29.25;;;20.00;;
13034;SDS011;6584;48.022;11.810;2022-12-16T07:14:59;27.88;;;19.42;;
13034;SDS011;6584;48.022;11.810;2022-12-16T07:17:43;30.73;;;20.95;;
13034;SDS011;6584;48.022;11.810;2022-12-16T07:20:28;28.88;;;20.15;;
13034;SDS011;6584;48.022;11.810;2022-12-16T07:23:12;26.67;;;19.50;;
13034;SDS011;6584;48.022;11.810;2022-12-16T07:25:56;28.00;;;19.95;;
13034;SDS011;6584;48.022;11.810;2022-12-16T07:28:40;29.77;;;20.10;;
13034;SDS011;6584;48.022;11.810;2022-12-16T07:31:25;27.30;;;19.58;;
13034;SDS011;6584;48.022;11.810;2022-12-16T07:34:09;26.73;;;19.67;;
13034;SDS011;6584;48.022;11.810;2022-12-16T07:36:53;28.27;;;20.05;;
13034;SDS011;6584;48.022;11.810;2022-12-16T07:39:37;26.38;;;18.85;;
13034;SDS011;6584;48.022;11.810;2022-12-16T07:42:21;26.55;;;19.00;;
13034;SDS011;6584;48.022;11.810;2022-12-16T07:45:06;28.83;;;19.55;;
13034;SDS011;6584;48.022;11.810;2022-12-16T07:47:51;26.48;;;19.33;;
13034;SDS011;6584;48.022;11.810;2022-12-16T07:50:35;28.70;;;18.95;;
13034;SDS011;6584;48.022;11.810;2022-12-16T07:53:20;28.77;;;19.77;;
13034;SDS011;6584;48.022;11.810;2022-12-16T07:56:04;29.67;;;21.27;;
13034;SDS011;6584;48.022;11.810;2022-12-16T07:58:48;28.83;;;20.58;;
13034;SDS011;6584;48.022;11.810;2022-12-16T08:01:32;28.30;;;20.38;;
13034;SDS011;6584;48.022;11.810;2022-12-16T08:04:16;31.52;;;20.83;;
13034;SDS011;6584;48.022;11.810;2022-12-16T08:07:01;31.58;;;21.55;;
13034;SDS011;6584;48.022;11.810;2022-12-16T08:09:46;29.98;;;21.02;;
13034;SDS011;6584;48.022;11.810;2022-12-16T08:12:30;36.72;;;22.45;;
13034;SDS011;6584;48.022;11.810;2022-12-16T08:15:14;33.47;;;22.52;;
13034;SDS011;6584;48.022;11.810;2022-12-16T08:17:58;32.95;;;22.55;;
13034;SDS011;6584;48.022;11.810;2022-12-16T08:20:42;35.03;;;23.42;;
13034;SDS011;6584;48.022;11.810;2022-12-16T08:23:26;34.95;;;22.90;;
13034;SDS011;6584;48.022;11.810;2022-12-16T08:26:10;35.53;;;24.85;;
13034;SDS011;6584;48.022;11.810;2022-12-16T08:28:55;39.13;;;24.98;;
13034;SDS011;6584;48.022;11.810;2022-12-16T08:31:39;38.85;;;25.42;;
13034;SDS011;6584;48.022;11.810;2022-12-16T08:34:23;38.58;;;25.95;;
13034;SDS011;6584;48.022;11.810;2022-12-16T08:37:07;38.08;;;25.55;;
13034;SDS011;6584;48.022;11.810;2022-12-16T08:39:52;41.00;;;25.33;;
13034;SDS011;6584;48.022;11.810;2022-12-16T08:42:36;37.95;;;25.23;;
13034;SDS011;6584;48.022;11.810;2022-12-16T08:45:20;38.25;;;24.55;;
13034;SDS011;6584;48.022;11.810;2022-12-16T08:48:04;40.90;;;26.85;;
13034;SDS011;6584;48.022;11.810;2022-12-16T08:50:48;39.58;;;25.92;;
13034;SDS011;6584;48.022;11.810;2022-12-16T08:53:32;37.35;;;25.48;;
13034;SDS011;6584;48.022;11.810;2022-12-16T08:56:16;38.00;;;25.92;;
13034;SDS011;6584;48.022;11.810;2022-12-16T08:59:00;39.38;;;25.88;;
13034;SDS011;6584;48.022;11.810;2022-12-16T09:01:45;39.38;;;26.67;;
13034;SDS011;6584;48.022;11.810;2022-12-16T09:04:29;36.42;;;25.35;;
13034;SDS011;6584;48.022;11.810;2022-12-16T09:07:13;40.60;;;25.55;;
13034;SDS011;6584;48.022;11.810;2022-12-16T09:09:57;38.45;;;26.08;;
13034;SDS011;6584;48.022;11.810;2022-12-16T09:12:41;42.67;;;27.58;;
13034;SDS011;6584;48.022;11.810;2022-12-16T09:15:25;37.25;;;25.65;;
13034;SDS011;6584;48.022;11.810;2022-12-16T09:18:09;39.75;;;26.42;;
13034;SDS011;6584;48.022;11.810;2022-12-16T09:20:53;42.08;;;27.42;;
13034;SDS011;6584;48.022;11.810;2022-12-16T09:23:37;41.78;;;27.63;;
13034;SDS011;6584;48.022;11.810;2022-12-16T09:26:21;42.05;;;27.23;;
13034;SDS011;6584;48.022;11.810;2022-12-16T09:29:05;42.35;;;26.88;;
13034;SDS011;6584;48.022;11.810;2022-12-16T09:31:49;40.95;;;26.95;;
13034;SDS011;6584;48.022;11.810;2022-12-16T09:34:34;41.17;;;26.25;;
13034;SDS011;6584;48.022;11.810;2022-12-16T09:37:18;39.00;;;26.02;;
13034;SDS011;6584;48.022;11.810;2022-12-16T09:40:02;40.78;;;26.25;;
13034;SDS011;6584;48.022;11.810;2022-12-16T09:45:58;38.83;;;24.88;;
13034;SDS011;6584;48.022;11.810;2022-12-16T09:51:44;41.25;;;25.73;;
13034;SDS011;6584;48.022;11.810;2022-12-16T09:54:29;37.70;;;25.23;;
13034;SDS011;6584;48.022;11.810;2022-12-16T09:57:17;38.80;;;24.70;;
13034;SDS011;6584;48.022;11.810;2022-12-16T10:00:18;39.83;;;26.67;;
13034;SDS011;6584;48.022;11.810;2022-12-16T10:03:07;35.90;;;24.95;;
13034;SDS011;6584;48.022;11.810;2022-12-16T10:06:09;39.15;;;25.35;;
13034;SDS011;6584;48.022;11.810;2022-12-16T10:15:30;38.53;;;25.17;;
13034;SDS011;6584;48.022;11.810;2022-12-16T10:21:27;40.20;;;25.55;;
13034;SDS011;6584;48.022;11.810;2022-12-16T10:24:31;39.05;;;25.48;;
13034;SDS011;6584;48.022;11.810;2022-12-16T10:27:29;37.47;;;24.60;;
13034;SDS011;6584;48.022;11.810;2022-12-16T10:30:26;36.85;;;24.63;;
13034;SDS011;6584;48.022;11.810;2022-12-16T10:33:12;36.22;;;24.05;;
13034;SDS011;6584;48.022;11.810;2022-12-16T10:35:58;39.38;;;24.52;;
13034;SDS011;6584;48.022;11.810;2022-12-16T10:38:43;38.35;;;25.65;;
13034;SDS011;6584;48.022;11.810;2022-12-16T10:41:35;36.92;;;24.95;;
13034;SDS011;6584;48.022;11.810;2022-12-16T10:47:14;36.75;;;24.63;;
13034;SDS011;6584;48.022;11.810;2022-12-16T10:49:58;35.85;;;24.83;;
13034;SDS011;6584;48.022;11.810;2022-12-16T10:52:43;37.83;;;24.77;;
13034;SDS011;6584;48.022;11.810;2022-12-16T10:55:56;33.97;;;23.38;;
13034;SDS011;6584;48.022;11.810;2022-12-16T10:59:05;38.05;;;22.85;;
13034;SDS011;6584;48.022;11.810;2022-12-16T11:02:00;35.65;;;23.85;;
13034;SDS011;6584;48.022;11.810;2022-12-16T11:04:45;36.50;;;24.65;;
13034;SDS011;6584;48.022;11.810;2022-12-16T11:13:23;33.63;;;22.20;;
13034;SDS011;6584;48.022;11.810;2022-12-16T11:16:19;33.95;;;23.70;;
13034;SDS011;6584;48.022;11.810;2022-12-16T11:19:04;34.33;;;23.40;;
13034;SDS011;6584;48.022;11.810;2022-12-16T11:22:05;32.42;;;21.77;;
13034;SDS011;6584;48.022;11.810;2022-12-16T11:25:04;35.40;;;23.17;;
13034;SDS011;6584;48.022;11.810;2022-12-16T11:30:56;34.05;;;22.25;;
13034;SDS011;6584;48.022;11.810;2022-12-16T11:33:43;33.15;;;22.67;;
13034;SDS011;6584;48.022;11.810;2022-12-16T11:36:29;34.42;;;22.80;;
13034;SDS011;6584;48.022;11.810;2022-12-16T11:39:17;34.13;;;22.88;;
13034;SDS011;6584;48.022;11.810;2022-12-16T11:42:03;32.13;;;22.15;;
13034;SDS011;6584;48.022;11.810;2022-12-16T11:44:50;32.15;;;21.95;;
13034;SDS011;6584;48.022;11.810;2022-12-16T11:47:44;33.30;;;22.23;;
13034;SDS011;6584;48.022;11.810;2022-12-16T11:50:37;32.50;;;22.33;;
13034;SDS011;6584;48.022;11.810;2022-12-16T11:53:29;33.38;;;22.20;;
13034;SDS011;6584;48.022;11.810;2022-12-16T11:56:16;34.58;;;22.85;;
13034;SDS011;6584;48.022;11.810;2022-12-16T12:02:11;33.25;;;22.67;;
13034;SDS011;6584;48.022;11.810;2022-12-16T12:05:14;35.75;;;25.25;;
13034;SDS011;6584;48.022;11.810;2022-12-16T12:08:05;33.25;;;23.25;;
13034;SDS011;6584;48.022;11.810;2022-12-16T12:11:18;32.50;;;22.95;;
13034;SDS011;6584;48.022;11.810;2022-12-16T12:14:12;32.25;;;23.10;;
13034;SDS011;6584;48.022;11.810;2022-12-16T12:17:29;35.03;;;23.50;;
13034;SDS011;6584;48.022;11.810;2022-12-16T12:20:24;33.78;;;22.83;;
13034;SDS011;6584;48.022;11.810;2022-12-16T12:23:24;34.63;;;22.92;;
13034;SDS011;6584;48.022;11.810;2022-12-16T12:26:31;33.42;;;22.73;;
13034;SDS011;6584;48.022;11.810;2022-12-16T12:29:19;37.17;;;24.70;;
13034;SDS011;6584;48.022;11.810;2022-12-16T12:32:40;35.78;;;23.88;;
13034;SDS011;6584;48.022;11.810;2022-12-16T12:39:00;35.55;;;23.92;;
13034;SDS011;6584;48.022;11.810;2022-12-16T12:44:58;39.05;;;24.73;;
13034;SDS011;6584;48.022;11.810;2022-12-16T12:48:06;36.92;;;23.38;;
13034;SDS011;6584;48.022;11.810;2022-12-16T12:57:14;35.22;;;23.27;;
13034;SDS011;6584;48.022;11.810;2022-12-16T13:00:17;35.08;;;24.17;;
13034;SDS011;6584;48.022;11.810;2022-12-16T13:05:57;37.55;;;24.05;;
13034;SDS011;6584;48.022;11.810;2022-12-16T13:11:33;39.03;;;25.95;;
13034;SDS011;6584;48.022;11.810;2022-12-16T13:17:16;39.42;;;24.83;;
13034;SDS011;6584;48.022;11.810;2022-12-16T13:20:02;36.80;;;24.45;;
13034;SDS011;6584;48.022;11.810;2022-12-16T13:22:48;36.42;;;24.20;;
13034;SDS011;6584;48.022;11.810;2022-12-16T13:25:41;37.90;;;24.52;;
13034;SDS011;6584;48.022;11.810;2022-12-16T13:28:31;38.15;;;24.50;;
13034;SDS011;6584;48.022;11.810;2022-12-16T13:31:16;36.38;;;24.55;;
13034;SDS011;6584;48.022;11.810;2022-12-16T13:34:03;38.72;;;24.88;;
13034;SDS011;6584;48.022;11.810;2022-12-16T13:37:03;34.45;;;23.92;;
13034;SDS011;6584;48.022;11.810;2022-12-16T13:43:04;35.63;;;23.60;;
13034;SDS011;6584;48.022;11.810;2022-12-16T13:48:43;37.38;;;25.52;;
13034;SDS011;6584;48.022;11.810;2022-12-16T13:52:12;38.42;;;24.52;;
13034;SDS011;6584;48.022;11.810;2022-12-16T13:54:40;37.28;;;23.85;;
13034;SDS011;6584;48.022;11.810;2022-12-16T13:57:30;38.42;;;24.77;;
13034;SDS011;6584;48.022;11.810;2022-12-16T14:00:21;35.55;;;24.48;;
13034;SDS011;6584;48.022;11.810;2022-12-16T14:03:19;34.72;;;23.92;;
13034;SDS011;6584;48.022;11.810;2022-12-16T14:06:05;37.42;;;25.48;;
13034;SDS011;6584;48.022;11.810;2022-12-16T14:08:56;36.38;;;23.95;;
13034;SDS011;6584;48.022;11.810;2022-12-16T14:11:52;36.95;;;24.40;;
13034;SDS011;6584;48.022;11.810;2022-12-16T14:15:00;37.60;;;23.88;;
13034;SDS011;6584;48.022;11.810;2022-12-16T14:17:59;38.22;;;24.33;;
13034;SDS011;6584;48.022;11.810;2022-12-16T14:20:54;35.75;;;24.38;;
13034;SDS011;6584;48.022;11.810;2022-12-16T14:23:51;35.80;;;23.23;;
13034;SDS011;6584;48.022;11.810;2022-12-16T14:26:40;36.88;;;24.48;;
13034;SDS011;6584;48.022;11.810;2022-12-16T14:29:29;37.15;;;24.77;;
13034;SDS011;6584;48.022;11.810;2022-12-16T14:35:17;35.35;;;23.42;;
13034;SDS011;6584;48.022;11.810;2022-12-16T14:41:06;39.08;;;25.88;;
13034;SDS011;6584;48.022;11.810;2022-12-16T14:43:57;37.92;;;25.17;;
13034;SDS011;6584;48.022;11.810;2022-12-16T14:46:42;41.03;;;26.13;;
13034;SDS011;6584;48.022;11.810;2022-12-16T14:49:32;41.65;;;25.45;;
13034;SDS011;6584;48.022;11.810;2022-12-16T14:55:15;38.10;;;25.00;;
13034;SDS011;6584;48.022;11.810;2022-12-16T14:58:07;38.88;;;24.77;;
13034;SDS011;6584;48.022;11.810;2022-12-16T15:00:53;37.83;;;24.70;;
13034;SDS011;6584;48.022;11.810;2022-12-16T15:03:40;40.05;;;25.33;;
13034;SDS011;6584;48.022;11.810;2022-12-16T15:06:28;37.10;;;24.58;;
13034;SDS011;6584;48.022;11.810;2022-12-16T15:12:26;37.70;;;24.10;;
13034;SDS011;6584;48.022;11.810;2022-12-16T15:15:18;36.35;;;24.17;;
13034;SDS011;6584;48.022;11.810;2022-12-16T15:18:31;32.00;;;21.27;;
13034;SDS011;6584;48.022;11.810;2022-12-16T15:21:23;81.80;;;51.10;;
13034;SDS011;6584;48.022;11.810;2022-12-16T15:24:08;37.78;;;26.33;;
13034;SDS011;6584;48.022;11.810;2022-12-16T15:30:01;34.40;;;22.17;;
13034;SDS011;6584;48.022;11.810;2022-12-16T15:33:05;33.85;;;24.08;;
13034;SDS011;6584;48.022;11.810;2022-12-16T15:35:59;32.70;;;22.67;;
13034;SDS011;6584;48.022;11.810;2022-12-16T15:38:54;33.13;;;21.90;;
13034;SDS011;6584;48.022;11.810;2022-12-16T15:41:39;33.15;;;21.95;;
13034;SDS011;6584;48.022;11.810;2022-12-16T15:44:24;34.30;;;23.05;;
13034;SDS011;6584;48.022;11.810;2022-12-16T15:50:21;33.72;;;20.42;;
13034;SDS011;6584;48.022;11.810;2022-12-16T15:56:20;31.10;;;20.45;;
13034;SDS011;6584;48.022;11.810;2022-12-16T16:02:24;30.73;;;21.02;;
13034;SDS011;6584;48.022;11.810;2022-12-16T16:05:11;31.25;;;20.80;;
13034;SDS011;6584;48.022;11.810;2022-12-16T16:07:58;30.77;;;21.33;;
13034;SDS011;6584;48.022;11.810;2022-12-16T16:10:42;33.45;;;21.80;;
13034;SDS011;6584;48.022;11.810;2022-12-16T16:13:27;33.28;;;21.75;;
13034;SDS011;6584;48.022;11.810;2022-12-16T16:16:12;32.35;;;22.17;;
13034;SDS011;6584;48.022;11.810;2022-12-16T16:18:57;35.00;;;21.23;;
13034;SDS011;6584;48.022;11.810;2022-12-16T16:21:41;35.13;;;22.00;;
13034;SDS011;6584;48.022;11.810;2022-12-16T16:24:26;34.38;;;21.52;;
13034;SDS011;6584;48.022;11.810;2022-12-16T16:27:11;31.75;;;22.10;;
13034;SDS011;6584;48.022;11.810;2022-12-16T16:29:56;32.22;;;20.90;;
13034;SDS011;6584;48.022;11.810;2022-12-16T16:32:41;33.40;;;20.70;;
13034;SDS011;6584;48.022;11.810;2022-12-16T16:35:25;31.30;;;20.98;;
13034;SDS011;6584;48.022;11.810;2022-12-16T16:38:09;32.90;;;21.80;;
13034;SDS011;6584;48.022;11.810;2022-12-16T16:40:54;32.13;;;22.00;;
13034;SDS011;6584;48.022;11.810;2022-12-16T16:43:38;32.28;;;20.88;;
13034;SDS011;6584;48.022;11.810;2022-12-16T16:49:24;27.60;;;17.73;;
13034;SDS011;6584;48.022;11.810;2022-12-16T16:52:13;30.00;;;18.88;;
13034;SDS011;6584;48.022;11.810;2022-12-16T16:54:58;27.92;;;17.40;;
13034;SDS011;6584;48.022;11.810;2022-12-16T16:57:42;22.65;;;15.60;;
13034;SDS011;6584;48.022;11.810;2022-12-16T17:00:27;23.77;;;15.90;;
13034;SDS011;6584;48.022;11.810;2022-12-16T17:03:11;23.77;;;16.30;;
13034;SDS011;6584;48.022;11.810;2022-12-16T17:05:55;23.35;;;14.77;;
13034;SDS011;6584;48.022;11.810;2022-12-16T17:08:39;21.70;;;14.25;;
13034;SDS011;6584;48.022;11.810;2022-12-16T17:11:23;23.42;;;15.57;;
13034;SDS011;6584;48.022;11.810;2022-12-16T17:14:12;22.15;;;15.40;;
13034;SDS011;6584;48.022;11.810;2022-12-16T17:17:01;23.13;;;15.82;;
13034;SDS011;6584;48.022;11.810;2022-12-16T17:19:45;24.15;;;16.50;;
13034;SDS011;6584;48.022;11.810;2022-12-16T17:22:30;26.52;;;17.30;;
13034;SDS011;6584;48.022;11.810;2022-12-16T17:25:14;24.10;;;17.33;;
13034;SDS011;6584;48.022;11.810;2022-12-16T17:27:59;22.67;;;16.58;;
13034;SDS011;6584;48.022;11.810;2022-12-16T17:30:44;22.30;;;16.50;;
13034;SDS011;6584;48.022;11.810;2022-12-16T17:33:28;27.52;;;17.63;;
13034;SDS011;6584;48.022;11.810;2022-12-16T17:36:13;25.00;;;16.50;;
13034;SDS011;6584;48.022;11.810;2022-12-16T17:38:58;24.77;;;17.70;;
13034;SDS011;6584;48.022;11.810;2022-12-16T17:41:43;25.90;;;17.50;;